Macomb, MI (48042)

2:04 AM EDT on October 21, 2014 (GMT -0400)
Valley Forge Subdivision | Change Station
CLOSE
Current Station
Personal Weather Station
Location: Macomb, MI
Elevation: 607 ft
Nearby Weather Stations

Elev 607 ft 42.65 °N, 82.95 °W | Updated 1 second ago

Overcast
Overcast
47.8 °F
Feels Like 47 °F
N
3.6
Wind Variable Wind from NW
Gusts 4.7 mph

Today
High -- | Low -- °F
--% Chance of Precip.
Yesterday
High -- | Low -- °F
Precip. -- in
7:51 AM 6:39 PM
Waning Crescent, 7% visible
Pressure 29.87 in
Visibility 10.0 miles
Clouds Mostly Cloudy 2200 ft
Mostly Cloudy 2800 ft
Overcast 5500 ft
Windchill 47 °F
Dew Point 48 °F
Humidity 99%
Rainfall 0.00 in
Snow Depth Not available.
UV 0 out of 12
Pollen .30 out of 12
Ozone Good
PM2.5 Good
Flu Activity Sporadic
METAR KMTC 210558Z AUTO 31006KT 10SM BKN022 BKN028 OVC055 09/09 A2985 RMK AO2 CIG 022V028 BKN022 V SCT SLP113 60002 T00930090 10128 20092 52004 $

More Conditions Fewer Conditions

Pressure 29.87 in
Visibility 10.0 miles
Clouds Mostly Cloudy 2200 ft
Mostly Cloudy 2800 ft
Overcast 5500 ft
Windchill 47 °F
Dew Point 48 °F
Humidity 99%
Rainfall 0.00 in
Snow Depth Not available.
UV 0 out of 12
Pollen .30 out of 12
Ozone Good
PM2.5 Good
Flu Activity Sporadic
METAR KMTC 210558Z AUTO 31006KT 10SM BKN022 BKN028 OVC055 09/09 A2985 RMK AO2 CIG 022V028 BKN022 V SCT SLP113 60002 T00930090 10128 20092 52004 $

More Conditions Fewer Conditions

10-Day Weather Forecast

Almanac

Astronomy

Oct. 21, 2014 Rise Set
Actual Time 7:51 AM EDT 6:39 PM EDT
Civil Twilight 7:23 AM EDT 7:08 PM EDT
Nautical Twilight 6:50 AM EDT 7:41 PM EDT
Astronomical Twilight 6:17 AM EDT 8:14 PM EDT
Moon 5:32 AM EDT 5:35 PM EDT
Length of Visible Light 11h 45m
Length of Day
10h 47m
Tomorrow will be 2m 44s shorter.
Waning Crescent, 7% of the Moon is Illuminated
Today
Waning Crescent
Oct 23
New
Oct 30
First Quarter
Nov 6
Full
Nov 14
Last Quarter

Today's Extremes

State Highs State Lows

Community

WunderPhotos

Upload Photos

1,763,614 photos uploaded!

Nearby

Air Quality

  Air Quality AQ Index Pollutant
Yesterday Good
PM10
Yesterday Good
OZONE
Current Good
PM2.5
Current Good
OZONE
Tuesday Good
PM2.5
Wednesday Good
PM2.5
Thursday Good
PM2.5
Friday Good
PM2.5
Saturday Good
PM2.5

Snow Depth

Station Depth Elevation
No new snow has been reported.

Earthquake Activity

City Distance Mag. Time & Date
No recent earthquake activity has been reported nearby.
Minimum magnitude displayed is 2.5.

Coastal Water Temperatures

Place Temperature
No Stations Reporting

Nearby Weather Stations